createdAt,value
2018-02-03T00:01:58.555Z,21.26
2018-02-03T00:04:25.954Z,21.27
2018-02-03T00:06:53.317Z,21.26
2018-02-03T00:09:20.598Z,21.28
2018-02-03T00:11:47.848Z,21.28
2018-02-03T00:14:15.318Z,21.28
2018-02-03T00:16:42.646Z,21.28
2018-02-03T00:19:09.894Z,21.30
2018-02-03T00:21:37.237Z,21.31
2018-02-03T00:24:04.512Z,21.30
2018-02-03T00:26:31.803Z,21.30
2018-02-03T00:28:59.047Z,21.33
2018-02-03T00:31:26.449Z,21.32
2018-02-03T00:33:54.753Z,21.33
2018-02-03T00:36:22.289Z,21.32
2018-02-03T00:38:49.549Z,21.32
2018-02-03T00:41:16.907Z,21.31
2018-02-03T00:43:44.141Z,21.32
2018-02-03T00:46:11.382Z,21.32
2018-02-03T00:48:38.750Z,21.32
2018-02-03T00:51:06.166Z,21.32
2018-02-03T00:53:33.418Z,21.31
2018-02-03T00:56:00.656Z,21.32
2018-02-03T00:58:27.894Z,21.31
2018-02-03T01:00:55.130Z,21.32
2018-02-03T01:03:22.382Z,21.33
2018-02-03T01:05:49.630Z,21.32
2018-02-03T01:08:16.868Z,21.32
2018-02-03T01:10:44.101Z,21.33
2018-02-03T01:13:11.370Z,21.32
2018-02-03T01:15:38.605Z,21.31
2018-02-03T01:18:05.837Z,21.31
2018-02-03T01:20:33.086Z,21.32
2018-02-03T01:23:00.313Z,21.31
2018-02-03T01:25:27.579Z,21.32
2018-02-03T01:27:54.813Z,21.34
2018-02-03T01:30:22.055Z,21.33
2018-02-03T01:32:49.295Z,21.31
2018-02-03T01:35:16.534Z,21.31
2018-02-03T01:37:43.946Z,21.31
2018-02-03T01:40:11.185Z,21.30
2018-02-03T01:42:38.429Z,21.31
2018-02-03T01:45:05.661Z,21.33
2018-02-03T01:47:44.686Z,21.30
2018-02-03T01:50:12.082Z,21.32
2018-02-03T01:52:39.318Z,21.31
2018-02-03T01:55:06.549Z,21.34
2018-02-03T01:57:33.794Z,21.35
2018-02-03T02:00:01.033Z,21.34
2018-02-03T02:02:28.270Z,21.35
2018-02-03T02:04:55.526Z,21.33
2018-02-03T02:07:22.945Z,21.35
2018-02-03T02:09:50.186Z,21.35
2018-02-03T02:12:17.423Z,21.35
2018-02-03T02:14:44.670Z,21.37
2018-02-03T02:17:11.895Z,21.36
2018-02-03T02:19:39.150Z,21.35
2018-02-03T02:22:06.388Z,21.36
2018-02-03T02:24:33.621Z,21.35
2018-02-03T02:27:00.850Z,21.35
2018-02-03T02:29:28.094Z,21.37
2018-02-03T02:31:55.471Z,21.35
2018-02-03T02:34:22.703Z,21.38
2018-02-03T02:36:49.934Z,21.38
2018-02-03T02:39:17.188Z,21.37
2018-02-03T02:41:44.422Z,21.36
2018-02-03T02:44:11.655Z,21.39
2018-02-03T02:46:38.886Z,21.39
2018-02-03T02:49:06.126Z,21.37
2018-02-03T02:51:33.388Z,21.39
2018-02-03T02:54:00.626Z,21.38
2018-02-03T02:56:27.856Z,21.39
2018-02-03T03:01:34.058Z,21.39
2018-02-03T03:04:01.571Z,21.39
2018-02-03T03:06:28.806Z,21.39
2018-02-03T03:08:56.041Z,21.39
2018-02-03T03:11:23.290Z,21.41
2018-02-03T03:13:50.531Z,21.40
2018-02-03T03:16:17.768Z,21.38
2018-02-03T03:18:45.014Z,21.40
2018-02-03T03:21:12.250Z,21.41
2018-02-03T03:23:39.486Z,21.41
2018-02-03T03:26:06.730Z,21.41
2018-02-03T03:28:33.960Z,21.41
2018-02-03T03:31:01.194Z,21.38
2018-02-03T03:33:28.435Z,21.41
2018-02-03T03:35:55.674Z,21.42
2018-02-03T03:38:22.939Z,21.42
2018-02-03T03:40:50.173Z,21.43
2018-02-03T03:43:17.635Z,21.41
2018-02-03T03:45:44.870Z,21.43
2018-02-03T03:48:12.110Z,21.43
2018-02-03T03:50:39.356Z,21.41
2018-02-03T03:53:06.589Z,21.42
2018-02-03T03:55:34.009Z,21.43
2018-02-03T03:58:01.241Z,21.42
2018-02-03T04:00:28.474Z,21.41
2018-02-03T04:02:55.714Z,21.43
2018-02-03T04:05:22.956Z,21.42
2018-02-03T04:07:50.202Z,21.44
2018-02-03T04:10:17.434Z,21.41
2018-02-03T04:12:44.667Z,21.44
2018-02-03T04:15:11.906Z,21.44
2018-02-03T04:17:39.137Z,21.44
2018-02-03T04:20:06.415Z,21.43
2018-02-03T04:22:33.658Z,21.45
2018-02-03T04:25:00.890Z,21.46
2018-02-03T04:27:28.126Z,21.47
2018-02-03T04:29:55.362Z,21.47
2018-02-03T04:32:22.606Z,21.44
2018-02-03T04:34:49.841Z,21.45
2018-02-03T04:37:17.089Z,21.47
2018-02-03T04:39:44.318Z,21.45
2018-02-03T04:42:11.563Z,21.47
2018-02-03T04:44:38.816Z,21.48
2018-02-03T04:47:06.073Z,21.47
2018-02-03T04:49:33.316Z,21.46
2018-02-03T04:52:00.551Z,21.47
2018-02-03T04:54:27.891Z,21.46
2018-02-03T04:56:55.126Z,21.45
2018-02-03T04:59:22.386Z,21.46
2018-02-03T05:01:49.648Z,21.46
2018-02-03T05:04:16.882Z,21.45
2018-02-03T05:06:44.121Z,21.48
2018-02-03T05:09:11.346Z,21.48
2018-02-03T05:11:38.598Z,21.48
2018-02-03T05:14:05.840Z,21.46
2018-02-03T05:16:33.075Z,21.46
2018-02-03T05:19:00.318Z,21.46
2018-02-03T05:21:27.551Z,21.48
2018-02-03T05:23:54.958Z,21.46
2018-02-03T05:26:22.198Z,21.48
2018-02-03T05:28:49.438Z,21.48
2018-02-03T05:31:16.678Z,21.48
2018-02-03T05:33:43.910Z,21.49
2018-02-03T05:36:11.154Z,21.47
2018-02-03T05:38:38.381Z,21.48
2018-02-03T05:41:05.635Z,21.50
2018-02-03T05:43:33.306Z,21.49
2018-02-03T05:46:00.537Z,21.49
2018-02-03T05:48:27.773Z,21.49
2018-02-03T05:50:54.998Z,21.50
2018-02-03T05:53:22.251Z,21.49
2018-02-03T05:55:49.485Z,21.49
2018-02-03T05:58:16.719Z,21.50
2018-02-03T06:00:43.976Z,21.48
2018-02-03T06:03:11.214Z,21.50
2018-02-03T06:05:38.446Z,21.50
2018-02-03T06:08:05.673Z,21.50
2018-02-03T06:10:32.914Z,21.50
2018-02-03T06:13:00.198Z,21.50
2018-02-03T06:15:27.430Z,21.49
2018-02-03T06:17:54.659Z,21.50
2018-02-03T06:20:21.887Z,21.52
2018-02-03T06:22:49.125Z,21.50
2018-02-03T06:25:16.375Z,21.52
2018-02-03T06:27:43.598Z,21.52
2018-02-03T06:30:10.827Z,21.51
2018-02-03T06:32:38.050Z,21.49
2018-02-03T06:35:05.290Z,21.52
2018-02-03T06:37:32.537Z,21.53
2018-02-03T06:39:59.776Z,21.52
2018-02-03T06:42:27.005Z,21.52
2018-02-03T06:44:54.234Z,21.51
2018-02-03T06:47:21.466Z,21.52
2018-02-03T06:49:48.739Z,21.53
2018-02-03T06:52:15.971Z,21.50
2018-02-03T06:54:43.198Z,21.50
2018-02-03T06:57:10.429Z,21.52
2018-02-03T06:59:37.658Z,21.52
2018-02-03T07:02:04.934Z,21.53
2018-02-03T07:04:32.158Z,21.52
2018-02-03T07:06:59.386Z,21.52
2018-02-03T07:09:26.617Z,21.52
2018-02-03T07:11:53.848Z,21.55
2018-02-03T07:14:21.408Z,21.53
2018-02-03T07:16:48.637Z,21.54
2018-02-03T07:19:15.863Z,21.53
2018-02-03T07:21:43.118Z,21.52
2018-02-03T07:24:10.398Z,21.54
2018-02-03T07:26:37.565Z,21.53
2018-02-03T07:29:04.793Z,21.54
2018-02-03T07:31:32.022Z,21.55
2018-02-03T07:33:59.313Z,21.54
2018-02-03T07:36:26.542Z,21.52
2018-02-03T07:38:53.774Z,21.56
2018-02-03T07:41:21.010Z,21.55
2018-02-03T07:43:48.239Z,21.54
2018-02-03T07:46:15.462Z,21.55
2018-02-03T07:48:42.689Z,21.55
2018-02-03T07:51:10.033Z,21.55
2018-02-03T07:53:37.253Z,21.56
2018-02-03T07:56:04.491Z,21.53
2018-02-03T07:58:31.833Z,21.56
2018-02-03T08:00:59.058Z,21.54
2018-02-03T08:03:26.282Z,21.56
2018-02-03T08:05:53.523Z,21.57
2018-02-03T08:08:20.746Z,21.54
2018-02-03T08:10:47.978Z,21.59
2018-02-03T08:13:15.211Z,21.56
2018-02-03T08:15:42.434Z,21.58
2018-02-03T08:18:09.657Z,21.58
2018-02-03T08:20:36.889Z,21.53
2018-02-03T08:23:04.119Z,21.58
2018-02-03T08:25:31.355Z,21.56
2018-02-03T08:27:58.583Z,21.59
2018-02-03T08:30:25.823Z,21.58
2018-02-03T08:32:53.045Z,21.55
2018-02-03T08:35:20.274Z,21.56
2018-02-03T08:37:47.582Z,21.58
2018-02-03T08:40:14.811Z,21.57
2018-02-03T08:42:42.063Z,21.58
2018-02-03T08:45:09.530Z,21.59
2018-02-03T08:47:36.774Z,21.60
2018-02-03T08:50:04.019Z,21.60
2018-02-03T08:52:31.266Z,21.60
2018-02-03T08:54:58.533Z,21.60
2018-02-03T08:57:25.790Z,21.61
2018-02-03T08:59:53.035Z,21.60
2018-02-03T09:02:20.290Z,21.61
2018-02-03T09:04:47.531Z,21.61
2018-02-03T09:07:14.778Z,21.61
2018-02-03T09:09:42.366Z,21.66
2018-02-03T09:12:09.883Z,21.61
2018-02-03T09:14:37.255Z,21.62
2018-02-03T09:17:04.879Z,21.61
2018-02-03T09:19:32.230Z,21.65
2018-02-03T09:21:59.534Z,21.65
2018-02-03T09:24:26.822Z,21.66
2018-02-03T09:26:54.261Z,21.68
2018-02-03T09:29:21.901Z,21.67
2018-02-03T09:31:49.524Z,21.66
2018-02-03T09:34:16.766Z,21.68
2018-02-03T09:36:44.022Z,21.68
2018-02-03T09:39:11.361Z,21.69
2018-02-03T09:41:38.982Z,21.67
2018-02-03T09:44:06.898Z,21.66
2018-02-03T09:46:34.463Z,21.69
2018-02-03T09:49:01.820Z,21.67
2018-02-03T09:51:29.320Z,21.68
2018-02-03T09:53:56.674Z,21.69
2018-02-03T09:56:23.970Z,21.70
2018-02-03T09:58:51.584Z,21.71
2018-02-03T10:01:20.985Z,21.71
2018-02-03T10:03:48.293Z,21.70
2018-02-03T10:06:16.010Z,21.72
2018-02-03T10:08:43.362Z,21.73
2018-02-03T10:11:10.733Z,21.70
2018-02-03T10:13:38.286Z,21.70
2018-02-03T10:16:05.685Z,21.72
2018-02-03T10:18:32.950Z,21.70
2018-02-03T10:21:00.205Z,21.72
2018-02-03T10:23:27.880Z,21.70
2018-02-03T10:25:55.754Z,21.66
2018-02-03T10:28:23.490Z,21.27
2018-02-03T10:30:51.875Z,21.02
2018-02-03T10:33:19.474Z,20.83
2018-02-03T10:35:46.866Z,20.68
2018-02-03T10:38:14.163Z,20.53
2018-02-03T10:40:41.526Z,20.41
2018-02-03T10:43:08.814Z,20.30
2018-02-03T10:45:36.298Z,20.11
2018-02-03T10:48:03.743Z,19.97
2018-02-03T10:50:31.011Z,19.89
2018-02-03T10:52:58.285Z,19.80
2018-02-03T10:55:27.497Z,19.75
2018-02-03T10:57:54.777Z,19.68
2018-02-03T11:00:22.066Z,19.58
2018-02-03T11:02:49.458Z,19.52
2018-02-03T11:05:17.490Z,19.43
2018-02-03T11:07:44.828Z,19.36
2018-02-03T11:10:12.198Z,19.35
2018-02-03T11:12:39.469Z,19.27
2018-02-03T11:15:07.010Z,19.27
2018-02-03T11:17:34.510Z,19.20
2018-02-03T11:20:02.111Z,19.10
2018-02-03T11:22:29.363Z,19.15
2018-02-03T11:24:56.602Z,19.10
2018-02-03T11:27:23.838Z,19.09
2018-02-03T11:29:51.072Z,19.01
2018-02-03T11:32:18.306Z,18.95
2018-02-03T11:34:45.544Z,19.00
2018-02-03T11:37:12.789Z,18.96
2018-02-03T11:39:40.030Z,18.89
2018-02-03T11:42:07.267Z,18.88
2018-02-03T11:44:34.506Z,18.90
2018-02-03T11:47:01.762Z,18.88
2018-02-03T11:49:28.994Z,18.84
2018-02-03T11:51:56.227Z,18.83
2018-02-03T11:54:23.470Z,18.79
2018-02-03T11:56:50.710Z,18.75
2018-02-03T11:59:17.937Z,18.73
2018-02-03T12:01:45.177Z,18.74
2018-02-03T12:04:12.410Z,18.68
2018-02-03T12:06:41.156Z,18.74
2018-02-03T12:09:08.946Z,19.10
2018-02-03T12:11:36.181Z,19.43
2018-02-03T12:14:03.446Z,19.62
2018-02-03T12:16:30.682Z,19.71
2018-02-03T12:18:57.913Z,19.83
2018-02-03T12:21:25.464Z,19.96
2018-02-03T12:23:52.726Z,20.06
2018-02-03T12:26:20.800Z,20.15
2018-02-03T12:28:48.036Z,20.22
2018-02-03T12:31:15.266Z,20.33
2018-02-03T12:33:42.537Z,20.36
2018-02-03T12:36:09.774Z,20.42
2018-02-03T12:38:37.022Z,20.49
2018-02-03T12:41:04.270Z,20.54
2018-02-03T12:43:31.507Z,20.59
2018-02-03T12:45:58.778Z,20.62
2018-02-03T12:48:26.010Z,20.67
2018-02-03T12:50:53.246Z,20.68
2018-02-03T12:53:20.486Z,20.72
2018-02-03T12:55:47.757Z,20.77
2018-02-03T12:58:15.026Z,20.78
2018-02-03T13:00:42.265Z,20.81
2018-02-03T13:03:09.497Z,20.83
2018-02-03T13:05:36.734Z,20.85
2018-02-03T13:08:03.974Z,20.87
2018-02-03T13:10:31.224Z,20.87
2018-02-03T13:12:58.821Z,20.87
2018-02-03T13:15:26.059Z,20.90
2018-02-03T13:17:53.298Z,20.94
2018-02-03T13:20:20.529Z,20.96
2018-02-03T13:22:47.761Z,20.97
2018-02-03T13:25:15.035Z,20.96
2018-02-03T13:27:44.066Z,20.98
2018-02-03T13:30:11.310Z,21.01
2018-02-03T13:32:38.546Z,21.03
2018-02-03T13:35:05.778Z,21.02
2018-02-03T13:37:33.035Z,21.04
2018-02-03T13:40:00.274Z,21.04
2018-02-03T13:42:27.506Z,21.04
2018-02-03T13:44:54.750Z,21.04
2018-02-03T13:47:21.990Z,21.06
2018-02-03T13:49:49.250Z,21.07
2018-02-03T13:52:16.478Z,21.09
2018-02-03T13:54:43.714Z,21.08
2018-02-03T13:57:10.942Z,21.08
2018-02-03T13:59:38.178Z,21.09
2018-02-03T14:02:05.416Z,21.11
2018-02-03T14:04:32.671Z,21.12
2018-02-03T14:06:59.910Z,21.14
2018-02-03T14:09:27.270Z,21.13
2018-02-03T14:11:54.506Z,21.12
2018-02-03T14:14:21.751Z,21.14
2018-02-03T14:16:49.010Z,21.13
2018-02-03T14:19:16.255Z,21.16
2018-02-03T14:21:43.626Z,21.14
2018-02-03T14:24:16.595Z,21.16
2018-02-03T14:26:43.829Z,21.13
2018-02-03T14:29:11.065Z,21.14
2018-02-03T14:31:38.306Z,21.14
2018-02-03T14:34:05.586Z,21.13
2018-02-03T14:36:32.822Z,21.19
2018-02-03T14:39:00.061Z,21.17
2018-02-03T14:41:27.300Z,21.16
2018-02-03T14:43:54.614Z,21.18
2018-02-03T14:46:21.904Z,21.19
2018-02-03T14:48:49.107Z,21.19
2018-02-03T14:51:16.337Z,21.20
2018-02-03T14:53:43.591Z,21.20
2018-02-03T14:56:10.838Z,21.19
2018-02-03T14:58:38.125Z,21.19
2018-02-03T15:01:05.316Z,21.18
2018-02-03T15:03:32.547Z,21.18
2018-02-03T15:05:59.791Z,21.18
2018-02-03T15:08:27.095Z,21.19
2018-02-03T15:10:54.286Z,21.21
2018-02-03T15:13:21.522Z,21.22
2018-02-03T15:15:48.754Z,21.21
2018-02-03T15:18:15.993Z,21.24
2018-02-03T15:20:43.233Z,21.21
2018-02-03T15:23:10.474Z,21.23
2018-02-03T15:25:37.710Z,21.22
2018-02-03T15:28:04.950Z,21.22
2018-02-03T15:30:32.190Z,21.23
2018-02-03T15:32:59.442Z,21.24
2018-02-03T15:35:26.678Z,21.23
2018-02-03T15:37:53.915Z,21.22
2018-02-03T15:40:21.159Z,21.23
2018-02-03T15:42:48.394Z,21.24
2018-02-03T15:45:15.810Z,21.23
2018-02-03T15:47:43.050Z,21.23
2018-02-03T15:50:10.329Z,21.23
2018-02-03T15:52:37.575Z,21.24
2018-02-03T15:55:04.818Z,21.24
2018-02-03T15:57:32.058Z,21.26
2018-02-03T15:59:59.303Z,21.26
2018-02-03T16:02:26.540Z,21.25
2018-02-03T16:04:54.037Z,21.23
2018-02-03T16:07:21.282Z,21.27
2018-02-03T16:09:48.518Z,21.26
2018-02-03T16:12:15.862Z,21.26
2018-02-03T16:14:43.144Z,21.29
2018-02-03T16:17:10.393Z,21.28
2018-02-03T16:19:37.636Z,21.28
2018-02-03T16:22:05.102Z,21.29
2018-02-03T16:24:32.342Z,21.29
2018-02-03T16:26:59.574Z,21.30
2018-02-03T16:29:26.806Z,21.31
2018-02-03T16:31:54.041Z,21.28
2018-02-03T16:34:21.364Z,21.30
2018-02-03T16:36:48.598Z,21.30
2018-02-03T16:39:15.838Z,21.32
2018-02-03T16:41:43.082Z,21.30
2018-02-03T16:44:10.318Z,21.30
2018-02-03T16:46:37.554Z,21.31
2018-02-03T16:49:04.798Z,21.30
2018-02-03T16:51:32.044Z,21.30
2018-02-03T16:53:59.283Z,21.33
2018-02-03T16:56:38.406Z,21.31
2018-02-03T16:59:05.665Z,21.29
2018-02-03T17:01:32.910Z,21.31
2018-02-03T17:04:00.158Z,21.33
2018-02-03T17:06:27.402Z,21.34
2018-02-03T17:08:54.637Z,21.34
2018-02-03T17:11:21.927Z,21.33
2018-02-03T17:13:49.190Z,21.33
2018-02-03T17:16:16.430Z,21.34
2018-02-03T17:18:43.666Z,21.34
2018-02-03T17:21:10.905Z,21.33
2018-02-03T17:23:38.144Z,21.34
2018-02-03T17:26:05.396Z,21.34
2018-02-03T17:28:32.638Z,21.36
2018-02-03T17:31:00.430Z,21.34
2018-02-03T17:33:27.667Z,21.34
2018-02-03T17:35:55.257Z,21.34
2018-02-03T17:38:28.173Z,21.34
2018-02-03T17:40:55.414Z,21.33
2018-02-03T17:43:22.649Z,21.34
2018-02-03T17:48:55.494Z,21.34
2018-02-03T17:51:22.799Z,21.34
2018-02-03T17:53:50.038Z,21.35
2018-02-03T17:56:22.902Z,21.34
2018-02-03T17:58:50.194Z,21.33
2018-02-03T18:01:17.465Z,21.34
2018-02-03T18:03:44.707Z,21.36
2018-02-03T18:06:11.952Z,21.33
2018-02-03T18:08:39.193Z,21.36
2018-02-03T18:11:06.430Z,21.36
2018-02-03T18:13:33.692Z,21.34
2018-02-03T18:16:00.922Z,21.35
2018-02-03T18:18:28.163Z,21.38
2018-02-03T18:20:55.454Z,21.36
2018-02-03T18:23:22.740Z,21.37
2018-02-03T18:25:49.942Z,21.37
2018-02-03T18:28:17.186Z,21.35
2018-02-03T18:30:45.166Z,21.37
2018-02-03T18:33:12.401Z,21.37
2018-02-03T18:35:39.639Z,21.37
2018-02-03T18:38:06.890Z,21.39
2018-02-03T18:40:34.135Z,21.37
2018-02-03T18:43:01.382Z,21.39
2018-02-03T18:45:40.675Z,21.39
2018-02-03T18:48:07.914Z,21.38
2018-02-03T18:50:35.161Z,21.39
2018-02-03T18:53:02.401Z,21.38
2018-02-03T18:55:29.642Z,21.39
2018-02-03T18:57:56.890Z,21.39
2018-02-03T19:00:24.130Z,21.37
2018-02-03T19:02:51.369Z,21.38
2018-02-03T19:05:18.605Z,21.39
2018-02-03T19:07:45.847Z,21.39
2018-02-03T19:10:13.087Z,21.40
2018-02-03T19:12:40.321Z,21.40
2018-02-03T19:15:07.562Z,21.40
2018-02-03T19:17:34.831Z,21.38
2018-02-03T19:20:02.070Z,21.40
2018-02-03T19:22:29.354Z,21.38
2018-02-03T19:24:56.599Z,21.38
2018-02-03T19:27:23.846Z,21.37
2018-02-03T19:29:51.091Z,21.40
2018-02-03T19:32:18.326Z,21.42
2018-02-03T19:34:45.912Z,21.41
2018-02-03T19:37:13.144Z,21.43
2018-02-03T19:39:40.386Z,21.42
2018-02-03T19:42:07.617Z,21.41
2018-02-03T19:44:34.859Z,21.43
2018-02-03T19:47:02.125Z,21.42
2018-02-03T19:49:29.358Z,21.41
2018-02-03T19:51:56.590Z,21.40
2018-02-03T19:54:23.834Z,21.44
2018-02-03T19:56:51.073Z,21.40
2018-02-03T19:59:18.428Z,21.41
2018-02-03T20:01:45.667Z,21.41
2018-02-03T20:04:12.906Z,21.41
2018-02-03T20:06:40.151Z,21.43
2018-02-03T20:09:07.388Z,21.41
2018-02-03T20:11:34.902Z,21.43
2018-02-03T20:14:02.144Z,21.42
2018-02-03T20:16:29.383Z,21.43
2018-02-03T20:18:56.621Z,21.42
2018-02-03T20:21:23.850Z,21.42
2018-02-03T20:23:51.394Z,21.42
2018-02-03T20:26:20.075Z,21.45
2018-02-03T20:28:47.259Z,21.44
2018-02-03T20:31:14.490Z,21.42
2018-02-03T20:33:41.713Z,21.43
2018-02-03T20:36:08.965Z,21.43
2018-02-03T20:38:36.202Z,21.42
2018-02-03T20:41:03.466Z,21.44
2018-02-03T20:43:30.706Z,21.42
2018-02-03T20:45:57.941Z,21.43
2018-02-03T20:48:25.184Z,21.46
2018-02-03T20:50:52.419Z,21.44
2018-02-03T20:53:19.663Z,21.44
2018-02-03T20:55:47.177Z,21.44
2018-02-03T20:58:14.411Z,21.46
2018-02-03T21:00:41.648Z,21.45
2018-02-03T21:03:08.877Z,21.45
2018-02-03T21:05:36.111Z,21.45
2018-02-03T21:08:03.530Z,21.44
2018-02-03T21:10:30.774Z,21.44
2018-02-03T21:12:58.002Z,21.44
2018-02-03T21:15:25.233Z,21.44
2018-02-03T21:17:52.469Z,21.45
2018-02-03T21:20:19.730Z,21.44
2018-02-03T21:22:46.966Z,21.44
2018-02-03T21:25:14.202Z,21.44
2018-02-03T21:27:41.434Z,21.45
2018-02-03T21:30:08.699Z,21.46
2018-02-03T21:32:36.154Z,21.47
2018-02-03T21:35:03.386Z,21.47
2018-02-03T21:37:30.630Z,21.47
2018-02-03T21:39:57.870Z,21.47
2018-02-03T21:42:25.118Z,21.46
2018-02-03T21:44:52.370Z,21.48
2018-02-03T21:47:19.614Z,21.48
2018-02-03T21:49:46.850Z,21.48
2018-02-03T21:52:14.082Z,21.48
2018-02-03T21:54:41.319Z,21.46
2018-02-03T21:57:08.570Z,21.46
2018-02-03T21:59:35.807Z,21.49
2018-02-03T22:02:03.037Z,21.48
2018-02-03T22:04:30.307Z,21.48
2018-02-03T22:06:57.538Z,21.47
2018-02-03T22:09:24.776Z,21.50
2018-02-03T22:11:52.010Z,21.49
2018-02-03T22:14:19.246Z,21.48
2018-02-03T22:16:46.499Z,21.48
2018-02-03T22:19:13.834Z,21.48
2018-02-03T22:21:41.080Z,21.49
2018-02-03T22:24:08.306Z,21.49
2018-02-03T22:26:35.537Z,21.48
2018-02-03T22:29:02.807Z,21.47
2018-02-03T22:31:30.048Z,21.49
2018-02-03T22:33:57.282Z,21.48
2018-02-03T22:36:24.517Z,21.49
2018-02-03T22:38:51.759Z,21.49
2018-02-03T22:41:19.018Z,21.51
2018-02-03T22:43:46.253Z,21.50
2018-02-03T22:46:13.503Z,21.50
2018-02-03T22:48:40.738Z,21.52
2018-02-03T22:51:07.969Z,21.52
2018-02-03T22:53:35.214Z,21.50
2018-02-03T22:56:02.442Z,21.50
2018-02-03T22:58:29.714Z,21.48
2018-02-03T23:01:02.723Z,21.50
2018-02-03T23:03:30.103Z,21.50
2018-02-03T23:05:57.337Z,21.51
2018-02-03T23:08:24.798Z,21.50
2018-02-03T23:10:52.030Z,21.47
2018-02-03T23:13:19.267Z,21.49
2018-02-03T23:15:46.510Z,21.51
2018-02-03T23:18:13.754Z,21.49
2018-02-03T23:20:40.994Z,21.45
2018-02-03T23:23:08.424Z,21.48
2018-02-03T23:25:35.662Z,21.49
2018-02-03T23:28:02.901Z,21.51
2018-02-03T23:30:30.134Z,21.49
2018-02-03T23:32:57.380Z,21.49
2018-02-03T23:35:24.618Z,21.50
2018-02-03T23:37:51.938Z,21.50
2018-02-03T23:40:19.178Z,21.49
2018-02-03T23:42:46.446Z,21.50
2018-02-03T23:45:13.685Z,21.51
2018-02-03T23:47:40.919Z,21.52
2018-02-03T23:50:15.610Z,21.50
